JIA5326 KCLT-KATL
Flight info
| Callsign | JIA5326 |
|---|---|
| Flight time | 0h 39m |
| Altitude | 28000 |
| Route | BOBZY5 TNSLY LEAVI OZZZI2 |
| Aircraft | CRJ9/M-SDFGIRWY/S |
Departure
| Time | 2026-05-06 17:03 |
|---|---|
| Airport | Charlotte Douglas International Airport (KCLT) |
Arrival
| Time | 2026-05-06 17:43 |
|---|---|
| Airport | Hartsfield Jackson Atlanta International Airport (KATL) |
| Time | Latitude | Longitude | Altitude | Speed | Heading |
|---|---|---|---|---|---|
| 2026-05-06 16:53 | 35.22606 | -80.94076 | 729 ft | 0 kts | 159° |
| 2026-05-06 16:58 | 35.22622 | -80.94085 | 727 ft | 4 kts | 134° |
| 2026-05-06 16:59 | 35.22629 | -80.94110 | 728 ft | 4 kts | 76° |
| 2026-05-06 16:59 | 35.22625 | -80.94128 | 727 ft | 1 kts | 70° |
| 2026-05-06 17:00 | 35.22630 | -80.94110 | 727 ft | 7 kts | 72° |
| 2026-05-06 17:01 | 35.22639 | -80.94014 | 727 ft | 12 kts | 84° |
| 2026-05-06 17:01 | 35.22629 | -80.93913 | 729 ft | 12 kts | 109° |
| 2026-05-06 17:01 | 35.22580 | -80.93844 | 729 ft | 11 kts | 173° |
| 2026-05-06 17:01 | 35.22513 | -80.93823 | 729 ft | 9 kts | 127° |
| 2026-05-06 17:02 | 35.22503 | -80.93748 | 730 ft | 9 kts | 89° |
| 2026-05-06 17:02 | 35.22507 | -80.93673 | 730 ft | 9 kts | 85° |
| 2026-05-06 17:02 | 35.22474 | -80.93619 | 729 ft | 11 kts | 165° |
| 2026-05-06 17:02 | 35.22331 | -80.93603 | 728 ft | 46 kts | 176° |
| 2026-05-06 17:03 | 35.21727 | -80.93553 | 725 ft | 124 kts | 176° |
| 2026-05-06 17:03 | 35.20675 | -80.93436 | 885 ft | 170 kts | 176° |
| 2026-05-06 17:03 | 35.19538 | -80.93261 | 1916 ft | 166 kts | 175° |
| 2026-05-06 17:03 | 35.18381 | -80.93084 | 2852 ft | 168 kts | 184° |
| 2026-05-06 17:04 | 35.17216 | -80.92935 | 3813 ft | 166 kts | 181° |
| 2026-05-06 17:04 | 35.16057 | -80.92772 | 4598 ft | 165 kts | 199° |
| 2026-05-06 17:04 | 35.15246 | -80.93588 | 5198 ft | 156 kts | 255° |
| 2026-05-06 17:04 | 35.15509 | -80.94875 | 5775 ft | 178 kts | 303° |
| 2026-05-06 17:05 | 35.16343 | -80.96135 | 6342 ft | 203 kts | 298° |
| 2026-05-06 17:05 | 35.17079 | -80.97697 | 7012 ft | 220 kts | 290° |
| 2026-05-06 17:05 | 35.17612 | -80.99499 | 7804 ft | 231 kts | 280° |
| 2026-05-06 17:05 | 35.17881 | -81.01479 | 8661 ft | 240 kts | 274° |
| 2026-05-06 17:06 | 35.18010 | -81.03589 | 9430 ft | 257 kts | 272° |
| 2026-05-06 17:06 | 35.18103 | -81.05829 | 10224 ft | 270 kts | 271° |
| 2026-05-06 17:06 | 35.18210 | -81.08137 | 11221 ft | 273 kts | 272° |
| 2026-05-06 17:06 | 35.18325 | -81.10468 | 12202 ft | 276 kts | 272° |
| 2026-05-06 17:07 | 35.18449 | -81.12820 | 13189 ft | 279 kts | 272° |
| 2026-05-06 17:07 | 35.18577 | -81.15204 | 14137 ft | 282 kts | 272° |
| 2026-05-06 17:07 | 35.18706 | -81.17625 | 14907 ft | 288 kts | 272° |
| 2026-05-06 17:07 | 35.18840 | -81.20097 | 15691 ft | 294 kts | 273° |
| 2026-05-06 17:08 | 35.18975 | -81.22620 | 16455 ft | 300 kts | 273° |
| 2026-05-06 17:08 | 35.19106 | -81.25156 | 17179 ft | 305 kts | 273° |
| 2026-05-06 17:08 | 35.19242 | -81.27771 | 17880 ft | 311 kts | 274° |
| 2026-05-06 17:08 | 35.19382 | -81.30416 | 18653 ft | 313 kts | 274° |
| 2026-05-06 17:09 | 35.19513 | -81.33096 | 19234 ft | 318 kts | 272° |
| 2026-05-06 17:09 | 35.19497 | -81.35823 | 19840 ft | 322 kts | 268° |
| 2026-05-06 17:09 | 35.19383 | -81.38583 | 20357 ft | 329 kts | 268° |
| 2026-05-06 17:09 | 35.19256 | -81.41400 | 20900 ft | 333 kts | 268° |
| 2026-05-06 17:10 | 35.19139 | -81.44214 | 21455 ft | 338 kts | 268° |
| 2026-05-06 17:10 | 35.19045 | -81.47107 | 21991 ft | 342 kts | 268° |
| 2026-05-06 17:10 | 35.18959 | -81.50039 | 22512 ft | 347 kts | 268° |
| 2026-05-06 17:10 | 35.18872 | -81.53044 | 22639 ft | 362 kts | 268° |
| 2026-05-06 17:11 | 35.18787 | -81.56192 | 22655 ft | 377 kts | 269° |
| 2026-05-06 17:11 | 35.18698 | -81.59455 | 22760 ft | 390 kts | 268° |
| 2026-05-06 17:11 | 35.18548 | -81.62818 | 22785 ft | 403 kts | 264° |
| 2026-05-06 17:11 | 35.17983 | -81.66227 | 22842 ft | 415 kts | 257° |
| 2026-05-06 17:12 | 35.17143 | -81.69597 | 23299 ft | 416 kts | 254° |
| 2026-05-06 17:12 | 35.16240 | -81.72924 | 23614 ft | 419 kts | 254° |
| 2026-05-06 17:12 | 35.15336 | -81.76324 | 23802 ft | 423 kts | 255° |
| 2026-05-06 17:12 | 35.14470 | -81.79792 | 23918 ft | 430 kts | 255° |
| 2026-05-06 17:13 | 35.13605 | -81.83299 | 23979 ft | 430 kts | 255° |
| 2026-05-06 17:13 | 35.12735 | -81.86806 | 24013 ft | 430 kts | 255° |
| 2026-05-06 17:13 | 35.11862 | -81.90308 | 24023 ft | 430 kts | 255° |
| 2026-05-06 17:13 | 35.10998 | -81.93805 | 24025 ft | 430 kts | 255° |
| 2026-05-06 17:14 | 35.10133 | -81.97262 | 24034 ft | 430 kts | 255° |
| 2026-05-06 17:14 | 35.09252 | -82.00756 | 24037 ft | 430 kts | 255° |
| 2026-05-06 17:14 | 35.08401 | -82.04259 | 24039 ft | 430 kts | 255° |
| 2026-05-06 17:14 | 35.07537 | -82.07758 | 24036 ft | 430 kts | 255° |
| 2026-05-06 17:15 | 35.06666 | -82.11252 | 24034 ft | 430 kts | 255° |
| 2026-05-06 17:15 | 35.05799 | -82.14747 | 24040 ft | 430 kts | 255° |
| 2026-05-06 17:15 | 35.04925 | -82.18244 | 24047 ft | 430 kts | 255° |
| 2026-05-06 17:15 | 35.04057 | -82.21739 | 24054 ft | 431 kts | 255° |
| 2026-05-06 17:16 | 35.03183 | -82.25234 | 24053 ft | 431 kts | 255° |
| 2026-05-06 17:16 | 35.02307 | -82.28731 | 24053 ft | 431 kts | 255° |
| 2026-05-06 17:16 | 35.01244 | -82.32155 | 24051 ft | 433 kts | 248° |
| 2026-05-06 17:16 | 34.99858 | -82.35436 | 24040 ft | 436 kts | 244° |
| 2026-05-06 17:17 | 34.98298 | -82.38608 | 24049 ft | 437 kts | 242° |
| 2026-05-06 17:17 | 34.96695 | -82.41763 | 24058 ft | 437 kts | 242° |
| 2026-05-06 17:17 | 34.95130 | -82.44890 | 24058 ft | 437 kts | 243° |
| 2026-05-06 17:17 | 34.93592 | -82.48084 | 24056 ft | 437 kts | 243° |
| 2026-05-06 17:18 | 34.92032 | -82.51317 | 24042 ft | 437 kts | 243° |
| 2026-05-06 17:18 | 34.90494 | -82.54505 | 24046 ft | 437 kts | 243° |
| 2026-05-06 17:18 | 34.88971 | -82.57648 | 24053 ft | 437 kts | 243° |
| 2026-05-06 17:18 | 34.87401 | -82.60883 | 24054 ft | 438 kts | 243° |
| 2026-05-06 17:19 | 34.85797 | -82.63980 | 24058 ft | 439 kts | 240° |
| 2026-05-06 17:19 | 34.84039 | -82.67033 | 24056 ft | 441 kts | 238° |
| 2026-05-06 17:19 | 34.82234 | -82.70049 | 24056 ft | 441 kts | 238° |
| 2026-05-06 17:19 | 34.80419 | -82.73077 | 24055 ft | 441 kts | 238° |
| 2026-05-06 17:20 | 34.78634 | -82.76106 | 24053 ft | 441 kts | 239° |
| 2026-05-06 17:20 | 34.76899 | -82.79154 | 24040 ft | 434 kts | 240° |
| 2026-05-06 17:20 | 34.75216 | -82.82147 | 24051 ft | 423 kts | 240° |
| 2026-05-06 17:20 | 34.73567 | -82.85068 | 24054 ft | 415 kts | 240° |
| 2026-05-06 17:21 | 34.71952 | -82.87930 | 24052 ft | 407 kts | 240° |
| 2026-05-06 17:21 | 34.70894 | -82.89800 | 24050 ft | 403 kts | 240° |
| 2026-05-06 17:21 | 34.69320 | -82.92585 | 24051 ft | 397 kts | 240° |
| 2026-05-06 17:21 | 34.67766 | -82.95332 | 24052 ft | 391 kts | 240° |
| 2026-05-06 17:22 | 34.66233 | -82.98040 | 24055 ft | 387 kts | 240° |
| 2026-05-06 17:22 | 34.64712 | -83.00712 | 24053 ft | 382 kts | 240° |
| 2026-05-06 17:22 | 34.63219 | -83.03356 | 24050 ft | 378 kts | 241° |
| 2026-05-06 17:22 | 34.61751 | -83.05994 | 24045 ft | 375 kts | 241° |
| 2026-05-06 17:23 | 34.60287 | -83.08618 | 24046 ft | 377 kts | 240° |
| 2026-05-06 17:23 | 34.58793 | -83.11267 | 24053 ft | 383 kts | 240° |
| 2026-05-06 17:23 | 34.57270 | -83.13939 | 24062 ft | 388 kts | 240° |
| 2026-05-06 17:23 | 34.55722 | -83.16651 | 24075 ft | 393 kts | 240° |
| 2026-05-06 17:24 | 34.54150 | -83.19388 | 24044 ft | 397 kts | 241° |
| 2026-05-06 17:24 | 34.52589 | -83.22116 | 24055 ft | 400 kts | 241° |
| 2026-05-06 17:24 | 34.51005 | -83.24912 | 24063 ft | 404 kts | 241° |
| 2026-05-06 17:24 | 34.49399 | -83.27732 | 24065 ft | 408 kts | 241° |
| 2026-05-06 17:25 | 34.47782 | -83.30568 | 24058 ft | 411 kts | 240° |
| 2026-05-06 17:25 | 34.46150 | -83.33428 | 24062 ft | 414 kts | 240° |
| 2026-05-06 17:25 | 34.44491 | -83.36295 | 24031 ft | 417 kts | 240° |
| 2026-05-06 17:25 | 34.42810 | -83.39182 | 24029 ft | 420 kts | 240° |
| 2026-05-06 17:26 | 34.41128 | -83.42078 | 24034 ft | 422 kts | 240° |
| 2026-05-06 17:26 | 34.39428 | -83.44987 | 24054 ft | 424 kts | 240° |
| 2026-05-06 17:26 | 34.37722 | -83.47917 | 24080 ft | 427 kts | 240° |
| 2026-05-06 17:26 | 34.36003 | -83.50867 | 24104 ft | 430 kts | 240° |
| 2026-05-06 17:27 | 34.34271 | -83.53834 | 24118 ft | 432 kts | 240° |
| 2026-05-06 17:27 | 34.32531 | -83.56813 | 24110 ft | 433 kts | 239° |
| 2026-05-06 17:27 | 34.30812 | -83.59721 | 24081 ft | 427 kts | 239° |
| 2026-05-06 17:27 | 34.29087 | -83.62607 | 24064 ft | 422 kts | 237° |
| 2026-05-06 17:28 | 34.27037 | -83.65175 | 24012 ft | 426 kts | 228° |
| 2026-05-06 17:28 | 34.24783 | -83.67448 | 23557 ft | 415 kts | 226° |
| 2026-05-06 17:28 | 34.22586 | -83.69599 | 23029 ft | 398 kts | 226° |
| 2026-05-06 17:28 | 34.20505 | -83.71713 | 22496 ft | 383 kts | 228° |
| 2026-05-06 17:29 | 34.18540 | -83.73807 | 21966 ft | 371 kts | 229° |
| 2026-05-06 17:29 | 34.16632 | -83.75840 | 21452 ft | 361 kts | 228° |
| 2026-05-06 17:29 | 34.14771 | -83.77818 | 20948 ft | 353 kts | 228° |
| 2026-05-06 17:29 | 34.12937 | -83.79755 | 20461 ft | 346 kts | 229° |
| 2026-05-06 17:30 | 34.11142 | -83.81651 | 19986 ft | 339 kts | 229° |
| 2026-05-06 17:30 | 34.09380 | -83.83511 | 19489 ft | 334 kts | 229° |
| 2026-05-06 17:30 | 34.07650 | -83.85367 | 19020 ft | 329 kts | 229° |
| 2026-05-06 17:30 | 34.05982 | -83.87182 | 18362 ft | 325 kts | 229° |
| 2026-05-06 17:31 | 34.04308 | -83.88980 | 17571 ft | 319 kts | 229° |
| 2026-05-06 17:31 | 34.02662 | -83.90750 | 16805 ft | 314 kts | 229° |
| 2026-05-06 17:31 | 34.01042 | -83.92492 | 16058 ft | 309 kts | 228° |
| 2026-05-06 17:31 | 33.99281 | -83.93986 | 15316 ft | 317 kts | 208° |
| 2026-05-06 17:32 | 33.97049 | -83.94329 | 14621 ft | 336 kts | 181° |
| 2026-05-06 17:32 | 33.94743 | -83.93823 | 13965 ft | 336 kts | 176° |
| 2026-05-06 17:32 | 33.92468 | -83.93198 | 13246 ft | 334 kts | 175° |
| 2026-05-06 17:32 | 33.90220 | -83.92536 | 12482 ft | 330 kts | 174° |
| 2026-05-06 17:33 | 33.87997 | -83.92076 | 11732 ft | 315 kts | 189° |
| 2026-05-06 17:33 | 33.85907 | -83.92522 | 11033 ft | 301 kts | 201° |
| 2026-05-06 17:33 | 33.83895 | -83.93172 | 10342 ft | 297 kts | 202° |
| 2026-05-06 17:33 | 33.81922 | -83.93874 | 9635 ft | 294 kts | 203° |
| 2026-05-06 17:34 | 33.79977 | -83.94599 | 8869 ft | 291 kts | 203° |
| 2026-05-06 17:34 | 33.78057 | -83.95339 | 8153 ft | 288 kts | 204° |
| 2026-05-06 17:34 | 33.76188 | -83.96077 | 7443 ft | 285 kts | 203° |
| 2026-05-06 17:34 | 33.74323 | -83.96839 | 6722 ft | 282 kts | 204° |
| 2026-05-06 17:35 | 33.72483 | -83.97576 | 6330 ft | 276 kts | 204° |
| 2026-05-06 17:35 | 33.70761 | -83.98427 | 6109 ft | 257 kts | 220° |
| 2026-05-06 17:35 | 33.69659 | -83.99961 | 6022 ft | 235 kts | 240° |
| 2026-05-06 17:36 | 33.67939 | -84.03557 | 6029 ft | 257 kts | 243° |
| 2026-05-06 17:36 | 33.67096 | -84.05452 | 6054 ft | 253 kts | 244° |
| 2026-05-06 17:36 | 33.66292 | -84.07286 | 6024 ft | 244 kts | 244° |
| 2026-05-06 17:36 | 33.65544 | -84.09071 | 5991 ft | 235 kts | 251° |
| 2026-05-06 17:37 | 33.65181 | -84.10965 | 5714 ft | 237 kts | 261° |
| 2026-05-06 17:37 | 33.64992 | -84.12951 | 5374 ft | 242 kts | 266° |
| 2026-05-06 17:37 | 33.64965 | -84.14975 | 5108 ft | 243 kts | 268° |
| 2026-05-06 17:37 | 33.64946 | -84.17003 | 4823 ft | 242 kts | 268° |
| 2026-05-06 17:38 | 33.64951 | -84.18986 | 4511 ft | 240 kts | 268° |
| 2026-05-06 17:38 | 33.64952 | -84.20974 | 4236 ft | 230 kts | 268° |
| 2026-05-06 17:38 | 33.64956 | -84.22822 | 3915 ft | 215 kts | 269° |
| 2026-05-06 17:38 | 33.64953 | -84.24483 | 3574 ft | 184 kts | 268° |
| 2026-05-06 17:39 | 33.64969 | -84.25897 | 3419 ft | 158 kts | 266° |
| 2026-05-06 17:39 | 33.64989 | -84.27220 | 3291 ft | 158 kts | 266° |
| 2026-05-06 17:39 | 33.64949 | -84.28490 | 3001 ft | 141 kts | 264° |
| 2026-05-06 17:39 | 33.64937 | -84.29568 | 2788 ft | 119 kts | 265° |
| 2026-05-06 17:40 | 33.64934 | -84.30541 | 2505 ft | 115 kts | 262° |
| 2026-05-06 17:40 | 33.64937 | -84.31520 | 2383 ft | 116 kts | 264° |
| 2026-05-06 17:40 | 33.64959 | -84.32456 | 2437 ft | 112 kts | 264° |
| 2026-05-06 17:40 | 33.64970 | -84.33452 | 2379 ft | 127 kts | 264° |
| 2026-05-06 17:41 | 33.64992 | -84.34528 | 2326 ft | 128 kts | 265° |
| 2026-05-06 17:41 | 33.65024 | -84.35597 | 2079 ft | 131 kts | 262° |
| 2026-05-06 17:41 | 33.65009 | -84.36718 | 1812 ft | 137 kts | 261° |
| 2026-05-06 17:41 | 33.64973 | -84.37873 | 1586 ft | 141 kts | 263° |
| 2026-05-06 17:42 | 33.64954 | -84.39047 | 1400 ft | 136 kts | 264° |
| 2026-05-06 17:42 | 33.64956 | -84.40148 | 1162 ft | 131 kts | 266° |
| 2026-05-06 17:42 | 33.64959 | -84.41230 | 1011 ft | 131 kts | 265° |
| 2026-05-06 17:42 | 33.64952 | -84.42148 | 1005 ft | 88 kts | 270° |
| 2026-05-06 17:43 | 33.64952 | -84.42726 | 1005 ft | 53 kts | 270° |
| 2026-05-06 17:43 | 33.64949 | -84.43020 | 1004 ft | 27 kts | 260° |
| 2026-05-06 17:43 | 33.64915 | -84.43210 | 1005 ft | 24 kts | 247° |
| 2026-05-06 17:43 | 33.64851 | -84.43335 | 1005 ft | 12 kts | 258° |
| 2026-05-06 17:44 | 33.64843 | -84.43451 | 1004 ft | 16 kts | 268° |
| 2026-05-06 17:44 | 33.64799 | -84.43543 | 1005 ft | 14 kts | 211° |
| 2026-05-06 17:44 | 33.64703 | -84.43611 | 1004 ft | 18 kts | 210° |
| 2026-05-06 17:44 | 33.64579 | -84.43697 | 1004 ft | 22 kts | 210° |
| 2026-05-06 17:45 | 33.64464 | -84.43707 | 1004 ft | 7 kts | 143° |
| 2026-05-06 17:45 | 33.64458 | -84.43660 | 1005 ft | 12 kts | 87° |
| 2026-05-06 17:45 | 33.64460 | -84.43533 | 1005 ft | 18 kts | 89° |
| 2026-05-06 17:45 | 33.64361 | -84.43458 | 1004 ft | 15 kts | 182° |
| 2026-05-06 17:46 | 33.64339 | -84.43520 | 1004 ft | 6 kts | 270° |
| 2026-05-06 17:46 | 33.64339 | -84.43521 | 1004 ft | 0 kts | 270° |